sensor_id;sensor_type;location;lat;lon;timestamp;temperature;humidity
21085;DHT22;72320;50.082;20.000;2023-09-08T00:00:23;27.30;55.40
21085;DHT22;72320;50.082;20.000;2023-09-08T00:01:56;27.30;55.40
21085;DHT22;72320;50.082;20.000;2023-09-08T00:03:29;27.20;55.60
21085;DHT22;72320;50.082;20.000;2023-09-08T00:05:02;27.10;55.80
21085;DHT22;72320;50.082;20.000;2023-09-08T00:06:35;27.00;56.00
21085;DHT22;72320;50.082;20.000;2023-09-08T00:08:08;26.90;56.20
21085;DHT22;72320;50.082;20.000;2023-09-08T00:09:41;26.80;56.50
21085;DHT22;72320;50.082;20.000;2023-09-08T00:11:14;26.80;56.70
21085;DHT22;72320;50.082;20.000;2023-09-08T00:12:47;26.70;57.40
21085;DHT22;72320;50.082;20.000;2023-09-08T00:14:20;26.70;56.80
21085;DHT22;72320;50.082;20.000;2023-09-08T00:15:53;26.70;56.70
21085;DHT22;72320;50.082;20.000;2023-09-08T00:17:26;26.70;56.70
21085;DHT22;72320;50.082;20.000;2023-09-08T00:18:59;26.70;56.90
21085;DHT22;72320;50.082;20.000;2023-09-08T00:20:32;26.70;56.90
21085;DHT22;72320;50.082;20.000;2023-09-08T00:22:05;26.60;56.90
21085;DHT22;72320;50.082;20.000;2023-09-08T00:23:39;26.60;57.20
21085;DHT22;72320;50.082;20.000;2023-09-08T00:25:12;26.60;57.30
21085;DHT22;72320;50.082;20.000;2023-09-08T00:29:29;26.60;57.20
21085;DHT22;72320;50.082;20.000;2023-09-08T00:31:02;26.90;57.10
21085;DHT22;72320;50.082;20.000;2023-09-08T00:32:35;27.10;56.70
21085;DHT22;72320;50.082;20.000;2023-09-08T00:34:08;27.10;56.00
21085;DHT22;72320;50.082;20.000;2023-09-08T00:35:44;27.20;55.80
21085;DHT22;72320;50.082;20.000;2023-09-08T00:37:17;27.10;55.80
21085;DHT22;72320;50.082;20.000;2023-09-08T00:38:50;27.00;56.00
21085;DHT22;72320;50.082;20.000;2023-09-08T00:40:23;27.00;56.10
21085;DHT22;72320;50.082;20.000;2023-09-08T00:41:56;27.00;56.10
21085;DHT22;72320;50.082;20.000;2023-09-08T00:43:29;27.00;56.10
21085;DHT22;72320;50.082;20.000;2023-09-08T00:45:02;26.90;56.30
21085;DHT22;72320;50.082;20.000;2023-09-08T00:46:36;26.90;56.40
21085;DHT22;72320;50.082;20.000;2023-09-08T00:48:09;26.80;56.40
21085;DHT22;72320;50.082;20.000;2023-09-08T00:49:43;26.80;56.50
21085;DHT22;72320;50.082;20.000;2023-09-08T00:51:16;26.80;57.20
21085;DHT22;72320;50.082;20.000;2023-09-08T00:52:49;26.70;56.60
21085;DHT22;72320;50.082;20.000;2023-09-08T00:54:22;26.60;56.70
21085;DHT22;72320;50.082;20.000;2023-09-08T00:55:56;26.60;56.80
21085;DHT22;72320;50.082;20.000;2023-09-08T00:57:29;26.60;56.90
21085;DHT22;72320;50.082;20.000;2023-09-08T00:59:02;26.50;56.80
21085;DHT22;72320;50.082;20.000;2023-09-08T01:00:37;26.50;57.10
21085;DHT22;72320;50.082;20.000;2023-09-08T01:02:10;26.40;57.20
21085;DHT22;72320;50.082;20.000;2023-09-08T01:03:43;26.40;57.40
21085;DHT22;72320;50.082;20.000;2023-09-08T01:05:16;26.40;57.40
21085;DHT22;72320;50.082;20.000;2023-09-08T01:06:49;26.30;58.00
21085;DHT22;72320;50.082;20.000;2023-09-08T01:08:23;26.40;57.50
21085;DHT22;72320;50.082;20.000;2023-09-08T01:09:57;26.40;58.00
21085;DHT22;72320;50.082;20.000;2023-09-08T01:11:30;26.50;57.20
21085;DHT22;72320;50.082;20.000;2023-09-08T01:13:04;26.60;57.10
21085;DHT22;72320;50.082;20.000;2023-09-08T01:14:37;26.80;56.90
21085;DHT22;72320;50.082;20.000;2023-09-08T01:16:10;27.00;56.50
21085;DHT22;72320;50.082;20.000;2023-09-08T01:17:43;27.10;56.30
21085;DHT22;72320;50.082;20.000;2023-09-08T01:19:16;27.10;56.50
21085;DHT22;72320;50.082;20.000;2023-09-08T01:23:21;26.90;55.80
21085;DHT22;72320;50.082;20.000;2023-09-08T01:25:22;26.60;56.40
21085;DHT22;72320;50.082;20.000;2023-09-08T01:26:56;26.40;56.90
21085;DHT22;72320;50.082;20.000;2023-09-08T01:28:30;26.20;57.50
21085;DHT22;72320;50.082;20.000;2023-09-08T01:30:05;26.00;57.80
21085;DHT22;72320;50.082;20.000;2023-09-08T01:31:39;25.90;58.00
21085;DHT22;72320;50.082;20.000;2023-09-08T01:33:12;25.90;58.20
21085;DHT22;72320;50.082;20.000;2023-09-08T01:34:45;26.00;58.20
21085;DHT22;72320;50.082;20.000;2023-09-08T01:36:18;26.00;58.10
21085;DHT22;72320;50.082;20.000;2023-09-08T01:37:51;26.10;58.20
21085;DHT22;72320;50.082;20.000;2023-09-08T01:39:24;26.20;58.00
21085;DHT22;72320;50.082;20.000;2023-09-08T01:40:57;26.40;57.80
21085;DHT22;72320;50.082;20.000;2023-09-08T01:42:30;26.50;57.50
21085;DHT22;72320;50.082;20.000;2023-09-08T01:44:03;26.60;57.30
21085;DHT22;72320;50.082;20.000;2023-09-08T01:45:36;26.70;57.10
21085;DHT22;72320;50.082;20.000;2023-09-08T01:47:09;26.80;56.90
21085;DHT22;72320;50.082;20.000;2023-09-08T01:48:42;26.90;56.60
21085;DHT22;72320;50.082;20.000;2023-09-08T01:50:15;26.90;56.30
21085;DHT22;72320;50.082;20.000;2023-09-08T01:51:48;27.00;56.20
21085;DHT22;72320;50.082;20.000;2023-09-08T01:53:21;27.00;56.60
21085;DHT22;72320;50.082;20.000;2023-09-08T01:54:54;27.00;55.90
21085;DHT22;72320;50.082;20.000;2023-09-08T01:56:27;27.00;55.80
21085;DHT22;72320;50.082;20.000;2023-09-08T01:58:00;27.00;55.70
21085;DHT22;72320;50.082;20.000;2023-09-08T01:59:33;27.00;55.60
21085;DHT22;72320;50.082;20.000;2023-09-08T02:01:06;27.00;56.00
21085;DHT22;72320;50.082;20.000;2023-09-08T02:02:39;27.00;55.40
21085;DHT22;72320;50.082;20.000;2023-09-08T02:04:13;27.10;55.50
21085;DHT22;72320;50.082;20.000;2023-09-08T02:05:46;27.00;55.40
21085;DHT22;72320;50.082;20.000;2023-09-08T02:07:19;27.00;55.50
21085;DHT22;72320;50.082;20.000;2023-09-08T02:08:51;27.00;55.40
21085;DHT22;72320;50.082;20.000;2023-09-08T02:10:25;27.00;55.20
21085;DHT22;72320;50.082;20.000;2023-09-08T02:11:58;27.00;55.40
21085;DHT22;72320;50.082;20.000;2023-09-08T02:13:32;27.00;55.30
21085;DHT22;72320;50.082;20.000;2023-09-08T02:15:05;27.00;55.40
21085;DHT22;72320;50.082;20.000;2023-09-08T02:16:39;27.00;55.40
21085;DHT22;72320;50.082;20.000;2023-09-08T02:18:12;27.00;55.40
21085;DHT22;72320;50.082;20.000;2023-09-08T02:19:45;27.00;55.40
21085;DHT22;72320;50.082;20.000;2023-09-08T02:21:18;27.00;55.30
21085;DHT22;72320;50.082;20.000;2023-09-08T02:22:54;27.00;55.20
21085;DHT22;72320;50.082;20.000;2023-09-08T02:24:28;26.90;55.10
21085;DHT22;72320;50.082;20.000;2023-09-08T02:26:01;26.80;55.00
21085;DHT22;72320;50.082;20.000;2023-09-08T02:27:34;26.80;55.40
21085;DHT22;72320;50.082;20.000;2023-09-08T02:29:07;26.90;55.50
21085;DHT22;72320;50.082;20.000;2023-09-08T02:30:40;26.90;55.40
21085;DHT22;72320;50.082;20.000;2023-09-08T02:32:13;26.80;55.40
21085;DHT22;72320;50.082;20.000;2023-09-08T02:33:46;26.90;55.40
21085;DHT22;72320;50.082;20.000;2023-09-08T02:35:20;26.90;55.30
21085;DHT22;72320;50.082;20.000;2023-09-08T02:36:55;26.90;55.10
21085;DHT22;72320;50.082;20.000;2023-09-08T02:38:28;26.90;55.10
21085;DHT22;72320;50.082;20.000;2023-09-08T02:40:02;26.90;55.10
21085;DHT22;72320;50.082;20.000;2023-09-08T02:41:35;26.80;55.00
21085;DHT22;72320;50.082;20.000;2023-09-08T02:43:08;26.80;55.00
21085;DHT22;72320;50.082;20.000;2023-09-08T02:44:41;26.80;55.20
21085;DHT22;72320;50.082;20.000;2023-09-08T02:46:14;26.80;55.40
21085;DHT22;72320;50.082;20.000;2023-09-08T02:47:47;26.80;55.30
21085;DHT22;72320;50.082;20.000;2023-09-08T02:49:20;26.70;55.30
21085;DHT22;72320;50.082;20.000;2023-09-08T02:50:53;26.80;55.60
21085;DHT22;72320;50.082;20.000;2023-09-08T02:52:26;26.80;55.60
21085;DHT22;72320;50.082;20.000;2023-09-08T02:53:59;26.80;55.70
21085;DHT22;72320;50.082;20.000;2023-09-08T02:55:32;26.80;55.50
21085;DHT22;72320;50.082;20.000;2023-09-08T02:57:05;26.80;55.30
21085;DHT22;72320;50.082;20.000;2023-09-08T02:58:37;26.80;55.90
21085;DHT22;72320;50.082;20.000;2023-09-08T03:00:11;26.80;55.20
21085;DHT22;72320;50.082;20.000;2023-09-08T03:01:46;26.80;55.30
21085;DHT22;72320;50.082;20.000;2023-09-08T03:03:19;26.80;55.10
21085;DHT22;72320;50.082;20.000;2023-09-08T03:04:52;26.80;55.10
21085;DHT22;72320;50.082;20.000;2023-09-08T03:06:25;26.80;55.00
21085;DHT22;72320;50.082;20.000;2023-09-08T03:07:58;26.80;55.30
21085;DHT22;72320;50.082;20.000;2023-09-08T03:09:33;26.80;55.20
21085;DHT22;72320;50.082;20.000;2023-09-08T03:11:08;26.80;55.20
21085;DHT22;72320;50.082;20.000;2023-09-08T03:12:41;26.80;55.20
21085;DHT22;72320;50.082;20.000;2023-09-08T03:14:14;26.80;55.30
21085;DHT22;72320;50.082;20.000;2023-09-08T03:15:47;26.80;55.10
21085;DHT22;72320;50.082;20.000;2023-09-08T03:17:20;26.80;55.10
21085;DHT22;72320;50.082;20.000;2023-09-08T03:18:53;26.80;55.10
21085;DHT22;72320;50.082;20.000;2023-09-08T03:20:27;26.80;55.10
21085;DHT22;72320;50.082;20.000;2023-09-08T03:22:00;26.80;55.00
21085;DHT22;72320;50.082;20.000;2023-09-08T03:23:33;26.80;55.00
21085;DHT22;72320;50.082;20.000;2023-09-08T03:25:06;26.80;54.90
21085;DHT22;72320;50.082;20.000;2023-09-08T03:26:39;26.70;54.80
21085;DHT22;72320;50.082;20.000;2023-09-08T03:28:15;26.70;54.80
21085;DHT22;72320;50.082;20.000;2023-09-08T03:29:48;26.70;54.70
21085;DHT22;72320;50.082;20.000;2023-09-08T03:31:20;26.60;54.80
21085;DHT22;72320;50.082;20.000;2023-09-08T03:32:54;26.70;55.00
21085;DHT22;72320;50.082;20.000;2023-09-08T03:34:27;26.60;54.70
21085;DHT22;72320;50.082;20.000;2023-09-08T03:36:00;26.60;54.90
21085;DHT22;72320;50.082;20.000;2023-09-08T03:37:36;26.60;54.90
21085;DHT22;72320;50.082;20.000;2023-09-08T03:39:09;26.60;54.90
21085;DHT22;72320;50.082;20.000;2023-09-08T03:40:42;26.60;54.80
21085;DHT22;72320;50.082;20.000;2023-09-08T03:42:15;26.50;54.80
21085;DHT22;72320;50.082;20.000;2023-09-08T03:43:48;26.50;54.80
21085;DHT22;72320;50.082;20.000;2023-09-08T03:45:21;26.50;54.80
21085;DHT22;72320;50.082;20.000;2023-09-08T03:46:54;26.50;54.80
21085;DHT22;72320;50.082;20.000;2023-09-08T03:48:26;26.50;54.80
21085;DHT22;72320;50.082;20.000;2023-09-08T03:49:59;26.40;54.80
21085;DHT22;72320;50.082;20.000;2023-09-08T03:51:32;26.50;54.80
21085;DHT22;72320;50.082;20.000;2023-09-08T03:53:05;26.40;54.70
21085;DHT22;72320;50.082;20.000;2023-09-08T03:54:38;26.40;54.80
21085;DHT22;72320;50.082;20.000;2023-09-08T03:56:11;26.40;54.70
21085;DHT22;72320;50.082;20.000;2023-09-08T03:57:44;26.40;54.80
21085;DHT22;72320;50.082;20.000;2023-09-08T03:59:17;26.40;55.00
21085;DHT22;72320;50.082;20.000;2023-09-08T04:00:50;26.40;55.00
21085;DHT22;72320;50.082;20.000;2023-09-08T04:02:23;26.40;55.10
21085;DHT22;72320;50.082;20.000;2023-09-08T04:03:56;26.40;55.10
21085;DHT22;72320;50.082;20.000;2023-09-08T04:05:29;26.30;54.90
21085;DHT22;72320;50.082;20.000;2023-09-08T04:07:03;26.30;54.80
21085;DHT22;72320;50.082;20.000;2023-09-08T04:08:36;26.30;55.00
21085;DHT22;72320;50.082;20.000;2023-09-08T04:10:09;26.30;55.10
21085;DHT22;72320;50.082;20.000;2023-09-08T04:11:42;26.30;55.00
21085;DHT22;72320;50.082;20.000;2023-09-08T04:13:15;26.30;55.10
21085;DHT22;72320;50.082;20.000;2023-09-08T04:14:48;26.20;54.90
21085;DHT22;72320;50.082;20.000;2023-09-08T04:16:21;26.00;55.30
21085;DHT22;72320;50.082;20.000;2023-09-08T04:17:54;25.90;55.70
21085;DHT22;72320;50.082;20.000;2023-09-08T04:19:27;25.70;56.10
21085;DHT22;72320;50.082;20.000;2023-09-08T04:21:00;25.60;56.50
21085;DHT22;72320;50.082;20.000;2023-09-08T04:22:33;25.40;57.10
21085;DHT22;72320;50.082;20.000;2023-09-08T04:24:06;25.30;57.60
21085;DHT22;72320;50.082;20.000;2023-09-08T04:25:39;25.40;57.70
21085;DHT22;72320;50.082;20.000;2023-09-08T04:27:12;25.50;57.50
21085;DHT22;72320;50.082;20.000;2023-09-08T04:28:47;25.70;57.30
21085;DHT22;72320;50.082;20.000;2023-09-08T04:30:20;25.80;57.10
21085;DHT22;72320;50.082;20.000;2023-09-08T04:31:53;25.80;56.90
21085;DHT22;72320;50.082;20.000;2023-09-08T04:33:26;25.60;57.10
21085;DHT22;72320;50.082;20.000;2023-09-08T04:34:59;25.40;57.60
21085;DHT22;72320;50.082;20.000;2023-09-08T04:36:32;25.30;58.20
21085;DHT22;72320;50.082;20.000;2023-09-08T04:38:05;25.20;58.40
21085;DHT22;72320;50.082;20.000;2023-09-08T04:39:38;25.10;58.80
21085;DHT22;72320;50.082;20.000;2023-09-08T04:41:11;25.00;59.10
21085;DHT22;72320;50.082;20.000;2023-09-08T04:42:44;24.90;59.30
21085;DHT22;72320;50.082;20.000;2023-09-08T04:44:17;25.10;59.50
21085;DHT22;72320;50.082;20.000;2023-09-08T04:45:50;25.20;59.40
21085;DHT22;72320;50.082;20.000;2023-09-08T04:47:23;25.20;59.20
21085;DHT22;72320;50.082;20.000;2023-09-08T04:48:56;25.30;59.20
21085;DHT22;72320;50.082;20.000;2023-09-08T04:50:29;25.50;59.10
21085;DHT22;72320;50.082;20.000;2023-09-08T04:52:02;25.60;59.00
21085;DHT22;72320;50.082;20.000;2023-09-08T04:53:35;25.70;58.80
21085;DHT22;72320;50.082;20.000;2023-09-08T04:55:09;25.70;58.80
21085;DHT22;72320;50.082;20.000;2023-09-08T04:56:42;25.70;58.80
21085;DHT22;72320;50.082;20.000;2023-09-08T04:58:15;25.90;58.60
21085;DHT22;72320;50.082;20.000;2023-09-08T04:59:48;26.00;58.40
21085;DHT22;72320;50.082;20.000;2023-09-08T05:01:21;26.20;58.00
21085;DHT22;72320;50.082;20.000;2023-09-08T05:02:54;26.50;57.80
21085;DHT22;72320;50.082;20.000;2023-09-08T05:04:27;26.80;57.30
21085;DHT22;72320;50.082;20.000;2023-09-08T05:06:00;27.00;56.60
21085;DHT22;72320;50.082;20.000;2023-09-08T05:07:33;27.20;56.30
21085;DHT22;72320;50.082;20.000;2023-09-08T05:09:06;27.20;56.10
21085;DHT22;72320;50.082;20.000;2023-09-08T05:10:39;27.40;55.70
21085;DHT22;72320;50.082;20.000;2023-09-08T05:12:12;27.50;55.50
21085;DHT22;72320;50.082;20.000;2023-09-08T05:13:48;27.60;55.30
21085;DHT22;72320;50.082;20.000;2023-09-08T05:15:21;27.70;55.20
21085;DHT22;72320;50.082;20.000;2023-09-08T05:16:54;27.80;55.20
21085;DHT22;72320;50.082;20.000;2023-09-08T05:18:27;27.90;55.00
21085;DHT22;72320;50.082;20.000;2023-09-08T05:20:01;27.90;55.30
21085;DHT22;72320;50.082;20.000;2023-09-08T05:21:34;28.00;54.80
21085;DHT22;72320;50.082;20.000;2023-09-08T05:23:07;28.10;54.50
21085;DHT22;72320;50.082;20.000;2023-09-08T05:24:41;28.20;54.30
21085;DHT22;72320;50.082;20.000;2023-09-08T05:26:14;28.30;54.00
21085;DHT22;72320;50.082;20.000;2023-09-08T05:27:46;28.40;53.90
21085;DHT22;72320;50.082;20.000;2023-09-08T05:29:19;28.50;53.90
21085;DHT22;72320;50.082;20.000;2023-09-08T05:30:53;28.60;53.80
21085;DHT22;72320;50.082;20.000;2023-09-08T05:32:26;28.70;53.70
21085;DHT22;72320;50.082;20.000;2023-09-08T05:34:00;28.80;53.50
21085;DHT22;72320;50.082;20.000;2023-09-08T05:35:33;28.90;53.10
21085;DHT22;72320;50.082;20.000;2023-09-08T05:37:05;29.10;53.70
21085;DHT22;72320;50.082;20.000;2023-09-08T05:38:39;29.20;52.70
21085;DHT22;72320;50.082;20.000;2023-09-08T05:40:14;29.30;52.70
21085;DHT22;72320;50.082;20.000;2023-09-08T05:41:48;29.40;52.60
21085;DHT22;72320;50.082;20.000;2023-09-08T05:43:21;29.30;53.40
21085;DHT22;72320;50.082;20.000;2023-09-08T05:44:55;29.40;53.00
21085;DHT22;72320;50.082;20.000;2023-09-08T05:46:28;29.50;52.90
21085;DHT22;72320;50.082;20.000;2023-09-08T05:48:02;29.60;53.00
21085;DHT22;72320;50.082;20.000;2023-09-08T05:49:35;29.60;52.70
21085;DHT22;72320;50.082;20.000;2023-09-08T05:51:09;29.80;53.00
21085;DHT22;72320;50.082;20.000;2023-09-08T05:52:42;29.70;53.00
21085;DHT22;72320;50.082;20.000;2023-09-08T05:54:15;29.80;52.40
21085;DHT22;72320;50.082;20.000;2023-09-08T05:55:47;29.90;52.60
21085;DHT22;72320;50.082;20.000;2023-09-08T05:57:21;29.90;52.50
21085;DHT22;72320;50.082;20.000;2023-09-08T05:58:53;29.90;52.50
21085;DHT22;72320;50.082;20.000;2023-09-08T06:00:26;29.90;52.30
21085;DHT22;72320;50.082;20.000;2023-09-08T06:01:59;30.00;52.30
21085;DHT22;72320;50.082;20.000;2023-09-08T06:03:32;29.90;52.90
21085;DHT22;72320;50.082;20.000;2023-09-08T06:05:06;30.00;52.10
21085;DHT22;72320;50.082;20.000;2023-09-08T06:06:39;30.20;51.80
21085;DHT22;72320;50.082;20.000;2023-09-08T06:08:12;30.20;51.80
21085;DHT22;72320;50.082;20.000;2023-09-08T06:09:45;30.30;52.10
21085;DHT22;72320;50.082;20.000;2023-09-08T06:11:18;30.30;51.70
21085;DHT22;72320;50.082;20.000;2023-09-08T06:12:51;30.40;51.50
21085;DHT22;72320;50.082;20.000;2023-09-08T06:14:25;30.50;51.20
21085;DHT22;72320;50.082;20.000;2023-09-08T06:15:58;30.80;51.20
21085;DHT22;72320;50.082;20.000;2023-09-08T06:17:31;30.70;51.20
21085;DHT22;72320;50.082;20.000;2023-09-08T06:19:04;30.50;51.40
21085;DHT22;72320;50.082;20.000;2023-09-08T06:20:43;30.20;51.40
21085;DHT22;72320;50.082;20.000;2023-09-08T06:22:19;30.00;51.80
21085;DHT22;72320;50.082;20.000;2023-09-08T06:23:53;29.80;52.10
21085;DHT22;72320;50.082;20.000;2023-09-08T06:25:26;29.80;52.40
21085;DHT22;72320;50.082;20.000;2023-09-08T06:27:01;29.60;52.50
21085;DHT22;72320;50.082;20.000;2023-09-08T06:28:34;29.80;52.60
21085;DHT22;72320;50.082;20.000;2023-09-08T06:30:08;29.90;52.50
21085;DHT22;72320;50.082;20.000;2023-09-08T06:31:42;29.90;52.40
21085;DHT22;72320;50.082;20.000;2023-09-08T06:33:15;29.70;52.40
21085;DHT22;72320;50.082;20.000;2023-09-08T06:34:48;29.80;52.60
21085;DHT22;72320;50.082;20.000;2023-09-08T06:36:21;30.00;52.40
21085;DHT22;72320;50.082;20.000;2023-09-08T06:37:54;30.20;52.30
21085;DHT22;72320;50.082;20.000;2023-09-08T06:39:27;30.20;52.10
21085;DHT22;72320;50.082;20.000;2023-09-08T06:41:00;30.30;51.70
21085;DHT22;72320;50.082;20.000;2023-09-08T06:42:33;30.10;51.90
21085;DHT22;72320;50.082;20.000;2023-09-08T06:44:06;30.10;52.00
21085;DHT22;72320;50.082;20.000;2023-09-08T06:45:39;30.00;52.10
21085;DHT22;72320;50.082;20.000;2023-09-08T06:47:12;30.00;52.30
21085;DHT22;72320;50.082;20.000;2023-09-08T06:48:45;30.00;52.20
21085;DHT22;72320;50.082;20.000;2023-09-08T06:50:18;30.20;52.10
21085;DHT22;72320;50.082;20.000;2023-09-08T06:51:51;30.30;52.00
21085;DHT22;72320;50.082;20.000;2023-09-08T06:53:23;30.40;51.80
21085;DHT22;72320;50.082;20.000;2023-09-08T06:54:57;30.50;51.50
21085;DHT22;72320;50.082;20.000;2023-09-08T06:56:30;30.60;51.30
21085;DHT22;72320;50.082;20.000;2023-09-08T06:58:03;30.60;51.40
21085;DHT22;72320;50.082;20.000;2023-09-08T06:59:36;30.80;51.30
21085;DHT22;72320;50.082;20.000;2023-09-08T07:01:09;30.90;51.10
21085;DHT22;72320;50.082;20.000;2023-09-08T07:02:42;30.90;51.10
21085;DHT22;72320;50.082;20.000;2023-09-08T07:04:15;31.00;51.00
21085;DHT22;72320;50.082;20.000;2023-09-08T07:05:50;31.10;51.20
21085;DHT22;72320;50.082;20.000;2023-09-08T07:07:23;31.10;50.90
21085;DHT22;72320;50.082;20.000;2023-09-08T07:08:55;31.10;50.60
21085;DHT22;72320;50.082;20.000;2023-09-08T07:10:28;31.20;50.70
21085;DHT22;72320;50.082;20.000;2023-09-08T07:12:03;31.30;50.60
21085;DHT22;72320;50.082;20.000;2023-09-08T07:13:36;31.30;51.30
21085;DHT22;72320;50.082;20.000;2023-09-08T07:15:09;31.30;50.50
21085;DHT22;72320;50.082;20.000;2023-09-08T07:16:43;31.30;50.70
21085;DHT22;72320;50.082;20.000;2023-09-08T07:18:16;31.20;50.40
21085;DHT22;72320;50.082;20.000;2023-09-08T07:19:50;31.20;50.30
21085;DHT22;72320;50.082;20.000;2023-09-08T07:21:23;31.30;50.30
21085;DHT22;72320;50.082;20.000;2023-09-08T07:22:55;31.30;50.30
21085;DHT22;72320;50.082;20.000;2023-09-08T07:24:29;31.30;50.20
21085;DHT22;72320;50.082;20.000;2023-09-08T07:26:02;31.30;50.40
21085;DHT22;72320;50.082;20.000;2023-09-08T07:27:35;31.30;50.50
21085;DHT22;72320;50.082;20.000;2023-09-08T07:29:08;31.30;50.40
21085;DHT22;72320;50.082;20.000;2023-09-08T07:30:41;31.40;50.30
21085;DHT22;72320;50.082;20.000;2023-09-08T07:32:15;31.30;51.20
21085;DHT22;72320;50.082;20.000;2023-09-08T07:33:49;31.30;50.60
21085;DHT22;72320;50.082;20.000;2023-09-08T07:35:22;31.20;50.60
21085;DHT22;72320;50.082;20.000;2023-09-08T07:36:55;31.20;50.60
21085;DHT22;72320;50.082;20.000;2023-09-08T07:38:27;31.30;50.50
21085;DHT22;72320;50.082;20.000;2023-09-08T07:40:00;31.30;50.50
21085;DHT22;72320;50.082;20.000;2023-09-08T07:41:34;31.30;50.40
21085;DHT22;72320;50.082;20.000;2023-09-08T07:43:06;31.30;50.40
21085;DHT22;72320;50.082;20.000;2023-09-08T07:44:39;31.20;50.70
21085;DHT22;72320;50.082;20.000;2023-09-08T07:46:12;31.00;50.90
21085;DHT22;72320;50.082;20.000;2023-09-08T07:47:46;30.90;50.80
21085;DHT22;72320;50.082;20.000;2023-09-08T07:49:19;30.90;50.80
21085;DHT22;72320;50.082;20.000;2023-09-08T07:50:52;31.00;50.90
21085;DHT22;72320;50.082;20.000;2023-09-08T07:52:25;31.10;50.90
21085;DHT22;72320;50.082;20.000;2023-09-08T07:53:57;31.10;50.60
21085;DHT22;72320;50.082;20.000;2023-09-08T07:55:30;31.20;50.60
21085;DHT22;72320;50.082;20.000;2023-09-08T07:57:04;31.30;50.40
21085;DHT22;72320;50.082;20.000;2023-09-08T07:58:37;31.30;50.70
21085;DHT22;72320;50.082;20.000;2023-09-08T08:00:10;31.10;50.70
21085;DHT22;72320;50.082;20.000;2023-09-08T08:01:44;31.10;50.70
21085;DHT22;72320;50.082;20.000;2023-09-08T08:03:17;31.10;50.60
21085;DHT22;72320;50.082;20.000;2023-09-08T08:04:49;31.10;50.80
21085;DHT22;72320;50.082;20.000;2023-09-08T08:06:22;31.20;51.00
21085;DHT22;72320;50.082;20.000;2023-09-08T08:07:55;31.20;50.70
21085;DHT22;72320;50.082;20.000;2023-09-08T08:09:28;31.10;50.40
21085;DHT22;72320;50.082;20.000;2023-09-08T08:11:01;31.00;50.60
21085;DHT22;72320;50.082;20.000;2023-09-08T08:12:34;31.10;50.50
21085;DHT22;72320;50.082;20.000;2023-09-08T08:14:08;30.90;50.30
21085;DHT22;72320;50.082;20.000;2023-09-08T08:15:41;31.00;50.70
21085;DHT22;72320;50.082;20.000;2023-09-08T08:17:16;30.90;50.80
21085;DHT22;72320;50.082;20.000;2023-09-08T08:18:49;31.10;50.90
21085;DHT22;72320;50.082;20.000;2023-09-08T08:20:22;31.00;51.60
21085;DHT22;72320;50.082;20.000;2023-09-08T08:21:56;30.90;50.80
21085;DHT22;72320;50.082;20.000;2023-09-08T08:23:29;30.80;51.00
21085;DHT22;72320;50.082;20.000;2023-09-08T08:25:04;30.80;51.20
21085;DHT22;72320;50.082;20.000;2023-09-08T08:26:37;30.60;51.30
21085;DHT22;72320;50.082;20.000;2023-09-08T08:28:10;30.70;51.20
21085;DHT22;72320;50.082;20.000;2023-09-08T08:29:43;30.60;50.90
21085;DHT22;72320;50.082;20.000;2023-09-08T08:31:16;30.60;50.90
21085;DHT22;72320;50.082;20.000;2023-09-08T08:32:49;30.80;51.10
21085;DHT22;72320;50.082;20.000;2023-09-08T08:34:22;30.90;51.00
21085;DHT22;72320;50.082;20.000;2023-09-08T08:35:55;31.10;50.70
21085;DHT22;72320;50.082;20.000;2023-09-08T08:37:28;31.10;50.60
21085;DHT22;72320;50.082;20.000;2023-09-08T08:39:01;31.20;50.70
21085;DHT22;72320;50.082;20.000;2023-09-08T08:40:38;31.30;50.50
21085;DHT22;72320;50.082;20.000;2023-09-08T08:42:11;31.50;50.30
21085;DHT22;72320;50.082;20.000;2023-09-08T08:43:45;31.50;50.00
21085;DHT22;72320;50.082;20.000;2023-09-08T08:45:25;31.50;49.90
21085;DHT22;72320;50.082;20.000;2023-09-08T08:46:58;31.50;49.80
21085;DHT22;72320;50.082;20.000;2023-09-08T08:48:35;31.40;49.80
21085;DHT22;72320;50.082;20.000;2023-09-08T08:50:10;31.40;49.90
21085;DHT22;72320;50.082;20.000;2023-09-08T08:51:45;31.20;50.10
21085;DHT22;72320;50.082;20.000;2023-09-08T08:53:20;31.10;50.20
21085;DHT22;72320;50.082;20.000;2023-09-08T08:54:53;31.30;50.20
21085;DHT22;72320;50.082;20.000;2023-09-08T08:56:27;31.40;50.10
21085;DHT22;72320;50.082;20.000;2023-09-08T08:58:04;31.60;49.60
21085;DHT22;72320;50.082;20.000;2023-09-08T08:59:38;31.60;49.60
21085;DHT22;72320;50.082;20.000;2023-09-08T09:01:12;31.70;49.40
21085;DHT22;72320;50.082;20.000;2023-09-08T09:02:46;31.80;48.90
21085;DHT22;72320;50.082;20.000;2023-09-08T09:04:31;32.00;48.80
21085;DHT22;72320;50.082;20.000;2023-09-08T09:06:05;32.10;48.60
21085;DHT22;72320;50.082;20.000;2023-09-08T09:07:38;32.20;48.80
21085;DHT22;72320;50.082;20.000;2023-09-08T09:09:12;32.20;48.80
21085;DHT22;72320;50.082;20.000;2023-09-08T09:10:45;32.20;48.60
21085;DHT22;72320;50.082;20.000;2023-09-08T09:12:19;32.10;48.70
21085;DHT22;72320;50.082;20.000;2023-09-08T09:13:52;32.10;48.80
21085;DHT22;72320;50.082;20.000;2023-09-08T09:15:29;32.10;48.80
21085;DHT22;72320;50.082;20.000;2023-09-08T09:17:03;32.20;48.70
21085;DHT22;72320;50.082;20.000;2023-09-08T09:18:57;32.20;48.40
21085;DHT22;72320;50.082;20.000;2023-09-08T09:20:32;32.00;48.50
21085;DHT22;72320;50.082;20.000;2023-09-08T09:22:05;31.80;48.70
21085;DHT22;72320;50.082;20.000;2023-09-08T09:23:38;31.60;48.90
21085;DHT22;72320;50.082;20.000;2023-09-08T09:25:25;31.60;49.00
21085;DHT22;72320;50.082;20.000;2023-09-08T09:27:00;31.70;48.60
21085;DHT22;72320;50.082;20.000;2023-09-08T09:28:34;31.70;48.90
21085;DHT22;72320;50.082;20.000;2023-09-08T09:30:19;31.50;48.90
21085;DHT22;72320;50.082;20.000;2023-09-08T09:31:56;31.60;49.00
21085;DHT22;72320;50.082;20.000;2023-09-08T09:33:31;31.80;48.60
21085;DHT22;72320;50.082;20.000;2023-09-08T09:35:05;32.00;48.80
21085;DHT22;72320;50.082;20.000;2023-09-08T09:36:42;32.00;48.30
21085;DHT22;72320;50.082;20.000;2023-09-08T09:38:16;32.10;48.30
21085;DHT22;72320;50.082;20.000;2023-09-08T09:39:53;32.10;47.80
21085;DHT22;72320;50.082;20.000;2023-09-08T09:41:30;32.30;47.70
21085;DHT22;72320;50.082;20.000;2023-09-08T09:43:04;32.50;47.70
21085;DHT22;72320;50.082;20.000;2023-09-08T09:44:40;32.70;47.50
21085;DHT22;72320;50.082;20.000;2023-09-08T09:46:15;32.80;47.00